createdAt,value
2023-01-30T00:02:23.882Z,98109.68
2023-01-30T00:04:57.522Z,98102.81
2023-01-30T00:07:31.128Z,98104.61
2023-01-30T00:10:05.218Z,98118.27
2023-01-30T00:12:38.666Z,98107.98
2023-01-30T00:15:12.823Z,98101.95
2023-01-30T00:17:46.424Z,98099.45
2023-01-30T00:20:20.583Z,98097.80
2023-01-30T00:23:00.885Z,98091.83
2023-01-30T00:25:31.638Z,98086.77
2023-01-30T00:28:05.212Z,98070.61
2023-01-30T00:30:38.629Z,98085.20
2023-01-30T00:33:12.232Z,98070.72
2023-01-30T00:35:47.032Z,98068.11
2023-01-30T00:38:21.363Z,98071.47
2023-01-30T00:40:54.871Z,98053.65
2023-01-30T00:43:46.055Z,98039.92
2023-01-30T00:46:45.038Z,98090.02
2023-01-30T00:49:18.548Z,98051.61
2023-01-30T00:51:52.159Z,98064.39
2023-01-30T00:54:25.758Z,98062.70
2023-01-30T00:56:59.236Z,98062.75
2023-01-30T00:59:32.630Z,98051.01
2023-01-30T01:02:05.895Z,98049.05
2023-01-30T01:04:41.595Z,98050.05
2023-01-30T01:07:17.286Z,98042.37
2023-01-30T01:09:50.931Z,98036.50
2023-01-30T01:12:24.368Z,98024.57
2023-01-30T01:14:57.936Z,98037.55
2023-01-30T01:17:31.487Z,98041.62
2023-01-30T01:20:05.903Z,98037.31
2023-01-30T01:22:39.502Z,98034.75
2023-01-30T01:25:14.012Z,98027.84
2023-01-30T01:27:47.689Z,98027.70
2023-01-30T01:30:22.702Z,98036.22
2023-01-30T01:32:56.132Z,98030.20
2023-01-30T01:35:29.831Z,98049.67
2023-01-30T01:38:03.309Z,98023.24
2023-01-30T01:40:54.572Z,97997.67
2023-01-30T01:43:28.496Z,98022.53
2023-01-30T01:46:04.652Z,97990.80
2023-01-30T01:48:41.542Z,97970.14
2023-01-30T01:51:17.680Z,97964.33
2023-01-30T01:53:53.992Z,97958.27
2023-01-30T01:56:28.827Z,97965.03
2023-01-30T01:59:05.716Z,97961.63
2023-01-30T02:01:39.265Z,97958.12
2023-01-30T02:04:13.997Z,97958.22
2023-01-30T02:06:49.006Z,97956.60
2023-01-30T02:09:22.390Z,97965.89
2023-01-30T02:11:58.512Z,97945.39
2023-01-30T02:14:33.769Z,97958.04
2023-01-30T02:17:09.096Z,97951.20
2023-01-30T02:19:46.418Z,97943.59
2023-01-30T02:23:12.363Z,97943.64
2023-01-30T02:26:17.935Z,97942.64
2023-01-30T02:32:05.873Z,97924.98
2023-01-30T02:34:49.794Z,97950.97
2023-01-30T02:37:31.579Z,97929.63
2023-01-30T02:40:14.199Z,97915.19
2023-01-30T02:42:51.545Z,97919.54
2023-01-30T02:45:26.651Z,97893.08
2023-01-30T02:48:02.963Z,97889.48
2023-01-30T02:50:40.173Z,97908.90
2023-01-30T02:53:13.960Z,97907.23
2023-01-30T02:55:47.551Z,97896.25
2023-01-30T02:58:23.448Z,97892.17
2023-01-30T03:01:35.668Z,97901.64
2023-01-30T03:04:46.225Z,97882.81
2023-01-30T03:07:26.433Z,97880.30
2023-01-30T03:10:06.858Z,97868.41
2023-01-30T03:12:45.101Z,97848.05
2023-01-30T03:15:21.674Z,97860.03
2023-01-30T03:17:56.348Z,97850.66
2023-01-30T03:20:29.782Z,97838.00
2023-01-30T03:23:03.070Z,97844.15
2023-01-30T03:25:38.652Z,97818.67
2023-01-30T03:28:14.889Z,97829.66
2023-01-30T03:30:49.759Z,97828.90
2023-01-30T03:33:23.277Z,97836.74
2023-01-30T03:35:57.216Z,97817.23
2023-01-30T03:38:30.611Z,97828.45
2023-01-30T03:41:05.919Z,97834.54
2023-01-30T03:43:39.747Z,97813.98
2023-01-30T03:46:13.057Z,97825.03
2023-01-30T03:48:46.699Z,97805.47
2023-01-30T03:51:23.165Z,97832.03
2023-01-30T03:53:56.839Z,97798.78
2023-01-30T03:56:30.009Z,97803.84
2023-01-30T03:59:03.252Z,97794.38
2023-01-30T04:01:38.643Z,97784.20
2023-01-30T04:04:12.433Z,97794.69
2023-01-30T04:06:46.205Z,97777.30
2023-01-30T04:09:19.624Z,97769.66
2023-01-30T04:11:54.559Z,97763.78
2023-01-30T04:14:28.088Z,97780.78
2023-01-30T04:17:12.417Z,97775.63
2023-01-30T04:19:59.378Z,97766.30
2023-01-30T04:22:33.601Z,97745.75
2023-01-30T04:25:08.003Z,97737.27
2023-01-30T04:27:43.424Z,97740.84
2023-01-30T04:30:27.239Z,97740.84
2023-01-30T04:33:02.475Z,97738.20
2023-01-30T04:35:35.973Z,97736.49
2023-01-30T04:38:09.513Z,97756.06
2023-01-30T04:40:43.080Z,97720.42
2023-01-30T04:43:16.485Z,97726.27
2023-01-30T04:46:03.671Z,97743.48
2023-01-30T04:48:40.555Z,97699.91
2023-01-30T04:51:14.351Z,97711.77
2023-01-30T04:53:48.253Z,97703.17
2023-01-30T04:56:21.838Z,97739.09
2023-01-30T04:58:55.735Z,97708.60
2023-01-30T05:01:33.206Z,97701.74
2023-01-30T05:04:07.952Z,97715.43
2023-01-30T05:06:41.663Z,97701.63
2023-01-30T05:09:15.150Z,97704.09
2023-01-30T05:11:48.770Z,97692.00
2023-01-30T05:14:22.157Z,97708.28
2023-01-30T05:16:55.354Z,97681.04
2023-01-30T05:19:28.725Z,97670.84
2023-01-30T05:22:02.186Z,97710.84
2023-01-30T05:24:36.957Z,97652.91
2023-01-30T05:27:10.264Z,97672.59
2023-01-30T05:29:43.829Z,97648.64
2023-01-30T05:32:18.917Z,97658.99
2023-01-30T05:34:52.500Z,97688.84
2023-01-30T05:37:26.163Z,97670.03
2023-01-30T05:40:00.562Z,97634.03
2023-01-30T05:42:35.363Z,97656.59
2023-01-30T05:45:13.661Z,97643.77
2023-01-30T05:47:48.289Z,97638.03
2023-01-30T05:50:21.980Z,97630.13
2023-01-30T05:52:55.416Z,97625.05
2023-01-30T05:55:29.012Z,97629.23
2023-01-30T05:58:02.463Z,97608.77
2023-01-30T06:00:39.124Z,97643.92
2023-01-30T06:03:13.204Z,97653.27
2023-01-30T06:05:46.915Z,97626.83
2023-01-30T06:08:20.762Z,97613.11
2023-01-30T06:10:54.294Z,97612.22
2023-01-30T06:13:27.561Z,97616.56
2023-01-30T06:16:01.123Z,97608.00
2023-01-30T06:18:34.506Z,97619.97
2023-01-30T06:21:09.249Z,97613.23
2023-01-30T06:23:42.770Z,97609.93
2023-01-30T06:26:16.243Z,97619.39
2023-01-30T06:28:50.143Z,97614.13
2023-01-30T06:31:23.906Z,97621.80
2023-01-30T06:33:59.281Z,97611.75
2023-01-30T06:36:32.414Z,97616.13
2023-01-30T06:39:06.076Z,97609.50
2023-01-30T06:41:39.318Z,97603.34
2023-01-30T06:44:13.009Z,97592.20
2023-01-30T06:46:46.111Z,97599.22
2023-01-30T06:49:19.464Z,97568.63
2023-01-30T06:51:53.865Z,97607.72
2023-01-30T06:54:27.469Z,97641.94
2023-01-30T06:57:00.999Z,97599.96
2023-01-30T06:59:34.703Z,97589.73
2023-01-30T07:02:08.516Z,97588.17
2023-01-30T07:04:42.691Z,97596.77
2023-01-30T07:07:16.342Z,97587.36
2023-01-30T07:10:06.784Z,97585.69
2023-01-30T07:12:26.964Z,97589.17
2023-01-30T07:15:00.541Z,97587.57
2023-01-30T07:17:33.851Z,97570.48
2023-01-30T07:20:08.188Z,97568.88
2023-01-30T07:22:41.565Z,97577.48
2023-01-30T07:25:14.846Z,97549.33
2023-01-30T07:27:52.993Z,97581.92
2023-01-30T07:30:27.192Z,97563.80
2023-01-30T07:33:01.777Z,97566.32
2023-01-30T07:35:36.951Z,97563.97
2023-01-30T07:38:10.436Z,97558.00
2023-01-30T07:40:43.933Z,97524.73
2023-01-30T07:43:17.067Z,97558.07
2023-01-30T07:45:51.062Z,97542.78
2023-01-30T07:48:24.651Z,97544.63
2023-01-30T07:50:59.354Z,97540.43
2023-01-30T07:53:32.382Z,97521.66
2023-01-30T07:56:10.785Z,97553.06
2023-01-30T07:58:44.183Z,97542.95
2023-01-30T08:01:18.277Z,97527.56
2023-01-30T08:03:53.205Z,97527.59
2023-01-30T08:06:26.634Z,97528.34
2023-01-30T08:08:59.928Z,97509.71
2023-01-30T08:11:33.630Z,97515.75
2023-01-30T08:14:06.991Z,97485.98
2023-01-30T08:16:40.652Z,97505.78
2023-01-30T08:19:14.620Z,97487.03
2023-01-30T08:21:48.397Z,97496.48
2023-01-30T08:24:21.858Z,97487.09
2023-01-30T08:26:57.333Z,97466.55
2023-01-30T08:29:30.927Z,97481.05
2023-01-30T08:32:04.531Z,97494.91
2023-01-30T08:34:38.086Z,97477.02
2023-01-30T08:37:11.589Z,97478.75
2023-01-30T08:39:45.605Z,97465.98
2023-01-30T08:42:19.377Z,97483.20
2023-01-30T08:44:53.051Z,97469.70
2023-01-30T08:47:26.882Z,97478.25
2023-01-30T08:50:00.639Z,97460.22
2023-01-30T08:52:34.993Z,97455.09
2023-01-30T08:55:10.392Z,97445.86
2023-01-30T08:57:44.302Z,97454.45
2023-01-30T09:00:19.852Z,97461.44
2023-01-30T09:02:55.671Z,97450.28
2023-01-30T09:05:30.108Z,97439.23
2023-01-30T09:08:03.616Z,97439.08
2023-01-30T09:10:37.351Z,97444.30
2023-01-30T09:13:12.649Z,97466.72
2023-01-30T09:15:46.547Z,97431.84
2023-01-30T09:18:20.016Z,97443.69
2023-01-30T09:20:53.946Z,97448.19
2023-01-30T09:23:27.135Z,97420.00
2023-01-30T09:26:00.525Z,97407.06
2023-01-30T09:28:33.943Z,97413.78
2023-01-30T09:31:07.891Z,97402.80
2023-01-30T09:33:41.082Z,97393.63
2023-01-30T09:36:14.593Z,97388.47
2023-01-30T09:38:48.007Z,97400.54
2023-01-30T09:41:40.205Z,97397.92
2023-01-30T09:44:31.324Z,97390.28
2023-01-30T09:47:08.211Z,97370.58
2023-01-30T09:49:45.576Z,97388.52
2023-01-30T09:52:24.811Z,97355.16
2023-01-30T09:55:02.165Z,97355.34
2023-01-30T09:57:37.240Z,97390.28
2023-01-30T10:00:15.802Z,97363.87
2023-01-30T10:02:54.154Z,97350.20
2023-01-30T10:05:30.232Z,97363.94
2023-01-30T10:08:51.950Z,97339.05
2023-01-30T10:11:38.988Z,97327.16
2023-01-30T10:14:53.185Z,97338.24
2023-01-30T10:17:35.947Z,97341.69
2023-01-30T10:20:21.215Z,97308.22
2023-01-30T10:23:02.276Z,97322.86
2023-01-30T10:25:38.290Z,97327.94
2023-01-30T10:28:16.439Z,97351.95
2023-01-30T10:30:53.276Z,97319.50
2023-01-30T10:33:30.526Z,97316.19
2023-01-30T10:36:07.180Z,97284.61
2023-01-30T10:38:44.603Z,97317.03
2023-01-30T10:41:24.980Z,97294.09
2023-01-30T10:44:02.872Z,97295.84
2023-01-30T10:46:38.837Z,97272.81
2023-01-30T10:49:19.186Z,97280.63
2023-01-30T10:51:57.537Z,97315.48
2023-01-30T10:54:34.121Z,97306.93
2023-01-30T10:57:11.476Z,97294.11
2023-01-30T10:59:50.166Z,97312.94
2023-01-30T11:02:28.668Z,97267.83
2023-01-30T11:05:04.559Z,97307.14
2023-01-30T11:07:38.406Z,97276.42
2023-01-30T11:10:18.313Z,97244.77
2023-01-30T11:12:54.274Z,97268.75
2023-01-30T11:15:29.299Z,97284.02
2023-01-30T11:19:08.203Z,97241.33
2023-01-30T11:20:48.045Z,97231.00
2023-01-30T11:23:28.121Z,97229.38
2023-01-30T11:26:11.208Z,97223.44
2023-01-30T11:28:43.336Z,97249.83
2023-01-30T11:31:35.229Z,97228.39
2023-01-30T11:34:04.633Z,97218.14
2023-01-30T11:36:39.154Z,97229.34
2023-01-30T11:39:24.756Z,97213.05
2023-01-30T11:42:05.093Z,97211.16
2023-01-30T11:44:39.678Z,97251.31
2023-01-30T11:47:16.508Z,97215.50
2023-01-30T11:50:03.648Z,97229.19
2023-01-30T11:52:31.645Z,97222.20
2023-01-30T11:55:08.824Z,97223.98
2023-01-30T11:57:48.125Z,97225.67
2023-01-30T12:00:24.790Z,97221.53
2023-01-30T12:03:01.355Z,97262.27
2023-01-30T12:05:36.043Z,97214.45
2023-01-30T12:08:31.184Z,97220.52
2023-01-30T12:11:00.480Z,97194.95
2023-01-30T12:13:37.732Z,97219.73
2023-01-30T12:16:22.079Z,97200.82
2023-01-30T12:18:59.169Z,97199.02
2023-01-30T12:21:39.817Z,97205.09
2023-01-30T12:24:19.533Z,97199.92
2023-01-30T12:26:56.787Z,97203.47
2023-01-30T12:29:33.639Z,97198.99
2023-01-30T12:32:11.318Z,97175.94
2023-01-30T12:34:45.642Z,97186.13
2023-01-30T12:37:39.122Z,97170.77
2023-01-30T12:40:22.941Z,97186.97
2023-01-30T12:43:06.899Z,97164.73
2023-01-30T12:45:43.252Z,97159.58
2023-01-30T12:48:44.061Z,97178.34
2023-01-30T12:51:17.307Z,97176.83
2023-01-30T12:53:58.794Z,97177.52
2023-01-30T12:56:47.493Z,97157.03
2023-01-30T12:59:25.120Z,97166.45
2023-01-30T13:02:06.598Z,97152.81
2023-01-30T13:05:01.675Z,97127.11
2023-01-30T13:07:23.996Z,97167.41
2023-01-30T13:10:05.284Z,97193.02
2023-01-30T13:12:42.540Z,97185.25
2023-01-30T13:15:22.219Z,97131.42
2023-01-30T13:18:04.864Z,97146.88
2023-01-30T13:23:49.929Z,97131.61
2023-01-30T13:26:26.454Z,97128.03
2023-01-30T13:29:03.342Z,97143.37
2023-01-30T13:31:40.108Z,97156.11
2023-01-30T13:34:16.578Z,97118.66
2023-01-30T13:36:52.494Z,97127.03
2023-01-30T13:39:31.538Z,97133.91
2023-01-30T13:42:08.797Z,97124.48
2023-01-30T13:44:45.317Z,97122.09
2023-01-30T13:47:24.485Z,97131.42
2023-01-30T13:50:04.032Z,97093.73
2023-01-30T13:52:40.709Z,97127.92
2023-01-30T13:55:17.870Z,97126.17
2023-01-30T13:57:54.527Z,97125.30
2023-01-30T14:00:33.284Z,97108.20
2023-01-30T14:03:31.851Z,97109.12
2023-01-30T14:06:47.916Z,97097.13
2023-01-30T14:09:24.535Z,97095.39
2023-01-30T14:12:04.056Z,97094.58
2023-01-30T14:14:40.191Z,97091.96
2023-01-30T14:17:18.513Z,97091.15
2023-01-30T14:23:00.728Z,97084.52
2023-01-30T14:25:46.532Z,97090.37
2023-01-30T14:28:57.206Z,97103.19
2023-01-30T14:31:58.584Z,97088.71
2023-01-30T14:34:49.252Z,97076.77
2023-01-30T14:37:58.434Z,97078.50
2023-01-30T14:40:53.148Z,97075.95
2023-01-30T14:43:53.023Z,97127.29
2023-01-30T14:46:54.457Z,97106.84
2023-01-30T14:49:38.488Z,97094.02
2023-01-30T14:52:27.395Z,97109.41
2023-01-30T14:55:00.859Z,97100.88
2023-01-30T14:57:34.975Z,97138.56
2023-01-30T15:00:19.527Z,97092.41
2023-01-30T15:02:55.655Z,97080.48
2023-01-30T15:05:35.524Z,97105.30
2023-01-30T15:08:12.594Z,97056.59
2023-01-30T15:10:56.476Z,97070.25
2023-01-30T15:14:01.168Z,97070.27
2023-01-30T15:16:45.061Z,97100.98
2023-01-30T15:19:26.440Z,97124.92
2023-01-30T15:22:06.569Z,97072.83
2023-01-30T15:24:49.667Z,97104.52
2023-01-30T15:27:27.387Z,97080.64
2023-01-30T15:30:14.041Z,97072.03
2023-01-30T15:32:46.917Z,97078.09
2023-01-30T15:35:30.188Z,97091.78
2023-01-30T15:38:03.436Z,97043.00
2023-01-30T15:40:37.954Z,97078.14
2023-01-30T15:43:18.108Z,97056.76
2023-01-30T15:45:58.656Z,97051.61
2023-01-30T15:48:43.613Z,97056.76
2023-01-30T15:51:19.667Z,97071.33
2023-01-30T15:53:52.978Z,97024.31
2023-01-30T15:56:28.297Z,97056.83
2023-01-30T15:59:03.054Z,97051.72
2023-01-30T16:01:36.547Z,97024.34
2023-01-30T16:04:28.269Z,97049.99
2023-01-30T16:07:01.494Z,97060.31
2023-01-30T16:09:35.935Z,97051.81
2023-01-30T16:12:25.525Z,97035.52
2023-01-30T16:15:17.192Z,97075.77
2023-01-30T16:17:35.605Z,97043.22
2023-01-30T16:20:14.463Z,97074.84
2023-01-30T16:22:48.411Z,97039.83
2023-01-30T16:25:27.242Z,97069.77
2023-01-30T16:28:00.762Z,97091.93
2023-01-30T16:30:34.390Z,97067.13
2023-01-30T16:33:10.790Z,97027.84
2023-01-30T16:35:47.216Z,97026.97
2023-01-30T16:38:32.669Z,97049.19
2023-01-30T16:41:06.090Z,97098.80
2023-01-30T16:43:40.855Z,97038.88
2023-01-30T16:46:57.161Z,97059.42
2023-01-30T16:49:47.733Z,97072.27
2023-01-30T16:52:24.060Z,97058.70
2023-01-30T16:54:59.183Z,97056.11
2023-01-30T16:57:37.412Z,97048.36
2023-01-30T17:00:16.759Z,97046.63
2023-01-30T17:02:53.115Z,97071.52
2023-01-30T17:05:28.565Z,97056.95
2023-01-30T17:08:01.589Z,97060.36
2023-01-30T17:10:56.474Z,97026.11
2023-01-30T17:13:35.609Z,97032.94
2023-01-30T17:19:21.219Z,97045.16
2023-01-30T17:21:55.041Z,97031.33
2023-01-30T17:24:29.274Z,97025.28
2023-01-30T17:27:04.948Z,97056.14
2023-01-30T17:29:43.097Z,97040.72
2023-01-30T17:32:15.395Z,97039.85
2023-01-30T17:34:48.533Z,97033.80
2023-01-30T17:37:23.188Z,97026.05
2023-01-30T17:39:56.305Z,97026.08
2023-01-30T17:42:29.468Z,97058.49
2023-01-30T17:45:04.267Z,97050.78
2023-01-30T17:47:36.845Z,97029.45
2023-01-30T17:50:14.844Z,97069.65
2023-01-30T17:52:47.962Z,97044.80
2023-01-30T17:55:22.227Z,97018.37
2023-01-30T17:57:56.615Z,97078.16
2023-01-30T18:00:30.066Z,97040.52
2023-01-30T18:03:03.284Z,97053.33
2023-01-30T18:05:37.430Z,97038.85
2023-01-30T18:08:10.627Z,97034.55
2023-01-30T18:10:44.272Z,97068.75
2023-01-30T18:13:17.713Z,97064.53
2023-01-30T18:15:51.835Z,97037.11
2023-01-30T18:18:25.625Z,97038.80
2023-01-30T18:20:59.247Z,97044.80
2023-01-30T18:23:32.797Z,97065.34
2023-01-30T18:26:06.321Z,97031.17
2023-01-30T18:28:40.151Z,97050.78
2023-01-30T18:31:14.422Z,97031.08
2023-01-30T18:33:53.424Z,97040.48
2023-01-30T18:36:28.125Z,97048.14
2023-01-30T18:39:01.570Z,97055.81
2023-01-30T18:41:36.782Z,97042.17
2023-01-30T18:44:11.958Z,97043.89
2023-01-30T18:46:45.253Z,97045.57
2023-01-30T18:49:18.753Z,97025.92
2023-01-30T18:51:51.993Z,97060.95
2023-01-30T18:54:25.148Z,97039.58
2023-01-30T18:56:58.649Z,97036.94
2023-01-30T18:59:32.361Z,97048.11
2023-01-30T19:02:05.993Z,97068.66
2023-01-30T19:04:40.407Z,97024.20
2023-01-30T19:07:16.360Z,97036.08
2023-01-30T19:09:50.522Z,97046.38
2023-01-30T19:12:42.424Z,97029.23
2023-01-30T19:15:16.019Z,97047.14
2023-01-30T19:17:49.075Z,97040.22
2023-01-30T19:20:24.094Z,97024.80
2023-01-30T19:22:58.351Z,97039.31
2023-01-30T19:25:31.707Z,97036.67
2023-01-30T19:28:06.737Z,97051.23
2023-01-30T19:30:40.440Z,97018.71
2023-01-30T19:33:14.128Z,97034.13
2023-01-30T19:35:47.295Z,97040.02
2023-01-30T19:38:21.252Z,97042.59
2023-01-30T19:40:54.357Z,97030.59
2023-01-30T19:43:28.635Z,97042.52
2023-01-30T19:46:02.707Z,97062.18
2023-01-30T19:48:40.604Z,97029.72
2023-01-30T19:51:14.006Z,97030.53
2023-01-30T19:53:51.599Z,97033.17
2023-01-30T19:56:27.338Z,97039.97
2023-01-30T19:59:02.344Z,97034.89
2023-01-30T20:01:38.000Z,97040.88
2023-01-30T20:04:11.269Z,97057.08
2023-01-30T20:06:46.187Z,97047.63
2023-01-30T20:09:19.507Z,97071.53
2023-01-30T20:11:52.639Z,97068.08
2023-01-30T20:14:25.988Z,97065.44
2023-01-30T20:16:59.194Z,97043.14
2023-01-30T20:19:32.388Z,97061.91
2023-01-30T20:22:07.102Z,97067.02
2023-01-30T20:24:40.548Z,97026.81
2023-01-30T20:27:13.688Z,97051.42
2023-01-30T20:29:46.836Z,97044.68
2023-01-30T20:32:20.644Z,97049.78
2023-01-30T20:34:54.136Z,97038.62
2023-01-30T20:37:28.030Z,97072.75
2023-01-30T20:40:01.182Z,97024.12
2023-01-30T20:42:34.592Z,97030.10
2023-01-30T20:45:10.276Z,97054.91
2023-01-30T20:47:43.483Z,97045.47
2023-01-30T20:50:17.822Z,97052.31
2023-01-30T20:52:52.704Z,97039.45
2023-01-30T20:55:25.773Z,97037.80
2023-01-30T20:57:58.958Z,97025.78
2023-01-30T21:00:32.035Z,97048.86
2023-01-30T21:03:05.216Z,97067.63
2023-01-30T21:05:38.336Z,97024.94
2023-01-30T21:08:11.606Z,97054.87
2023-01-30T21:10:46.737Z,97031.88
2023-01-30T21:13:19.843Z,97056.63
2023-01-30T21:16:04.090Z,97043.76
2023-01-30T21:18:39.488Z,97057.45
2023-01-30T21:21:17.794Z,97060.82
2023-01-30T21:23:52.273Z,97032.68
2023-01-30T21:26:28.435Z,97036.84
2023-01-30T21:29:02.862Z,97062.46
2023-01-30T21:31:37.752Z,97033.38
2023-01-30T21:34:12.088Z,97038.51
2023-01-30T21:36:46.873Z,97070.12
2023-01-30T21:39:38.000Z,97071.90
2023-01-30T21:42:28.521Z,97035.11
2023-01-30T21:45:02.509Z,97051.36
2023-01-30T21:47:37.387Z,97029.99
2023-01-30T21:50:12.499Z,97035.11
2023-01-30T21:52:45.715Z,97046.27
2023-01-30T21:55:19.214Z,97030.80
2023-01-30T21:57:53.587Z,97050.48
2023-01-30T22:00:27.298Z,97049.63
2023-01-30T22:03:00.400Z,97052.17
2023-01-30T22:05:36.795Z,97035.94
2023-01-30T22:08:09.975Z,97071.80
2023-01-30T22:10:43.626Z,97045.36
2023-01-30T22:13:17.150Z,97062.46
2023-01-30T22:15:50.680Z,97046.17
2023-01-30T22:18:23.754Z,97041.98
2023-01-30T22:21:01.420Z,97057.34
2023-01-30T22:23:36.319Z,97044.48
2023-01-30T22:26:10.896Z,97045.32
2023-01-30T22:28:44.228Z,97049.56
2023-01-30T22:31:19.604Z,97052.10
2023-01-30T22:33:55.068Z,97031.61
2023-01-30T22:36:30.133Z,97048.71
2023-01-30T22:39:04.203Z,97031.63
2023-01-30T22:41:38.657Z,97023.95
2023-01-30T22:44:12.460Z,97042.73
2023-01-30T22:46:45.819Z,97040.23
2023-01-30T22:49:19.408Z,97041.93
2023-01-30T22:51:52.582Z,97042.78
2023-01-30T22:54:27.232Z,97058.91
2023-01-30T22:57:00.645Z,97015.44
2023-01-30T22:59:34.088Z,97047.05
2023-01-30T23:02:10.481Z,97039.28
2023-01-30T23:04:43.975Z,97029.91
2023-01-30T23:07:18.062Z,97060.73
2023-01-30T23:09:51.169Z,97051.42
2023-01-30T23:12:41.999Z,97059.90
2023-01-30T23:15:15.478Z,97041.97
2023-01-30T23:18:06.354Z,97040.23
2023-01-30T23:20:40.307Z,97041.16
2023-01-30T23:23:13.837Z,97040.85
2023-01-30T23:25:47.040Z,97058.17
2023-01-30T23:28:21.354Z,97036.80
2023-01-30T23:30:54.718Z,97045.32
2023-01-30T23:33:28.057Z,97037.77
2023-01-30T23:36:05.557Z,97049.63
2023-01-30T23:38:38.918Z,97067.58
2023-01-30T23:41:14.907Z,97067.60
2023-01-30T23:43:49.347Z,97031.61
2023-01-30T23:46:25.107Z,97041.86
2023-01-30T23:49:00.161Z,97057.30
2023-01-30T23:51:35.481Z,97063.27
2023-01-30T23:54:09.757Z,97043.59
2023-01-30T23:56:45.775Z,97049.63
2023-01-30T23:59:19.240Z,97057.38
